createdAt,value
2023-03-15T00:01:34.206Z,6.70
2023-03-15T00:04:00.991Z,10.48
2023-03-15T00:06:27.366Z,5.93
2023-03-15T00:08:53.733Z,7.60
2023-03-15T00:11:20.263Z,5.70
2023-03-15T00:13:47.145Z,5.53
2023-03-15T00:16:17.324Z,8.20
2023-03-15T00:18:45.301Z,6.05
2023-03-15T00:21:11.629Z,5.75
2023-03-15T00:23:37.966Z,6.32
2023-03-15T00:26:04.458Z,5.93
2023-03-15T00:28:30.794Z,6.40
2023-03-15T00:31:24.904Z,5.50
2023-03-15T00:33:55.249Z,7.15
2023-03-15T00:36:25.386Z,5.72
2023-03-15T00:38:53.839Z,5.50
2023-03-15T00:41:21.906Z,5.40
2023-03-15T00:43:49.327Z,5.70
2023-03-15T00:46:16.898Z,6.45
2023-03-15T00:48:43.583Z,5.68
2023-03-15T00:51:12.639Z,4.85
2023-03-15T00:53:41.086Z,6.38
2023-03-15T00:56:17.066Z,5.47
2023-03-15T00:58:43.997Z,6.55
2023-03-15T01:01:17.355Z,6.15
2023-03-15T01:03:45.167Z,6.82
2023-03-15T01:06:17.413Z,5.63
2023-03-15T01:08:44.639Z,5.38
2023-03-15T01:11:14.423Z,5.85
2023-03-15T01:13:40.885Z,6.13
2023-03-15T01:16:10.007Z,5.60
2023-03-15T01:18:37.737Z,6.13
2023-03-15T01:21:09.230Z,5.15
2023-03-15T01:23:35.613Z,5.97
2023-03-15T01:26:03.715Z,5.20
2023-03-15T01:28:30.123Z,8.85
2023-03-15T01:30:59.687Z,5.88
2023-03-15T01:33:26.386Z,5.90
2023-03-15T01:35:59.995Z,5.97
2023-03-15T01:38:26.603Z,9.60
2023-03-15T01:40:52.940Z,6.43
2023-03-15T01:43:25.478Z,4.30
2023-03-15T01:46:12.662Z,5.13
2023-03-15T01:48:49.827Z,5.95
2023-03-15T01:51:47.437Z,5.50
2023-03-15T01:54:32.238Z,5.55
2023-03-15T01:57:08.858Z,5.15
2023-03-15T01:59:43.836Z,5.78
2023-03-15T02:02:14.439Z,8.18
2023-03-15T02:04:48.801Z,6.30
2023-03-15T02:07:20.210Z,6.38
2023-03-15T02:10:01.108Z,5.60
2023-03-15T02:12:31.464Z,5.45
2023-03-15T02:15:01.860Z,5.53
2023-03-15T02:17:35.993Z,5.97
2023-03-15T02:20:30.881Z,7.75
2023-03-15T02:23:07.188Z,5.57
2023-03-15T02:25:49.737Z,5.80
2023-03-15T02:28:18.330Z,5.53
2023-03-15T02:30:46.194Z,5.82
2023-03-15T02:33:20.911Z,6.88
2023-03-15T02:35:47.377Z,5.60
2023-03-15T02:38:13.763Z,5.90
2023-03-15T02:40:40.538Z,5.32
2023-03-15T02:43:13.038Z,10.25
2023-03-15T02:45:39.923Z,7.18
2023-03-15T02:48:08.452Z,5.65
2023-03-15T02:50:36.159Z,5.45
2023-03-15T02:53:05.626Z,5.05
2023-03-15T02:55:32.675Z,7.20
2023-03-15T02:58:00.332Z,5.15
2023-03-15T03:00:27.582Z,6.18
2023-03-15T03:02:54.759Z,5.95
2023-03-15T03:05:22.098Z,6.30
2023-03-15T03:07:50.086Z,5.72
2023-03-15T03:10:19.025Z,5.40
2023-03-15T03:12:54.369Z,6.55
2023-03-15T03:15:30.722Z,6.40
2023-03-15T03:17:57.065Z,5.28
2023-03-15T03:20:23.653Z,7.38
2023-03-15T03:22:50.001Z,10.98
2023-03-15T03:25:17.849Z,7.82
2023-03-15T03:27:47.667Z,7.72
2023-03-15T03:30:15.198Z,5.30
2023-03-15T03:32:49.305Z,7.18
2023-03-15T03:35:16.290Z,6.22
2023-03-15T03:37:42.876Z,8.50
2023-03-15T03:40:14.837Z,5.95
2023-03-15T03:42:41.561Z,9.93
2023-03-15T03:45:08.544Z,14.57
2023-03-15T03:47:39.863Z,16.33
2023-03-15T03:50:06.853Z,8.70
2023-03-15T03:52:33.182Z,17.58
2023-03-15T03:55:07.070Z,14.70
2023-03-15T03:57:33.563Z,10.23
2023-03-15T04:00:00.132Z,10.20
2023-03-15T04:02:28.552Z,16.15
2023-03-15T04:04:59.533Z,16.95
2023-03-15T04:07:26.408Z,12.32
2023-03-15T04:09:53.249Z,12.57
2023-03-15T04:12:19.922Z,11.50
2023-03-15T04:14:46.876Z,10.75
2023-03-15T04:17:14.414Z,12.60
2023-03-15T04:19:41.499Z,12.63
2023-03-15T04:22:09.477Z,12.50
2023-03-15T04:24:55.790Z,17.58
2023-03-15T04:27:36.956Z,15.73
2023-03-15T04:30:06.909Z,13.30
2023-03-15T04:32:42.503Z,10.48
2023-03-15T04:35:23.834Z,17.40
2023-03-15T04:37:57.785Z,15.60
2023-03-15T04:40:43.021Z,12.77
2023-03-15T04:43:32.431Z,6.40
2023-03-15T04:46:17.670Z,6.35
2023-03-15T04:49:00.876Z,5.55
2023-03-15T04:51:45.693Z,7.80
2023-03-15T04:56:55.196Z,6.05
2023-03-15T04:59:53.548Z,5.70
2023-03-15T05:02:58.493Z,6.35
2023-03-15T05:05:44.854Z,5.78
2023-03-15T05:08:24.956Z,5.47
2023-03-15T05:11:04.451Z,6.80
2023-03-15T05:13:44.982Z,6.47
2023-03-15T05:16:22.014Z,5.25
2023-03-15T05:18:56.984Z,7.28
2023-03-15T05:21:29.195Z,6.65
2023-03-15T05:24:10.777Z,6.90
2023-03-15T05:26:54.099Z,6.15
2023-03-15T05:29:33.508Z,7.40
2023-03-15T05:32:15.985Z,7.78
2023-03-15T05:35:09.783Z,5.90
2023-03-15T05:37:48.478Z,6.97
2023-03-15T05:40:33.332Z,7.00
2023-03-15T05:43:06.581Z,8.57
2023-03-15T05:45:48.601Z,6.65
2023-03-15T05:48:37.586Z,6.85
2023-03-15T05:51:13.277Z,7.45
2023-03-15T05:54:03.118Z,6.20
2023-03-15T05:56:38.032Z,8.35
2023-03-15T05:59:16.245Z,6.32
2023-03-15T06:01:52.392Z,6.32
2023-03-15T06:04:28.706Z,6.28
2023-03-15T06:06:57.263Z,6.57
2023-03-15T06:09:24.224Z,7.28
2023-03-15T06:11:50.981Z,7.95
2023-03-15T06:14:17.499Z,7.43
2023-03-15T06:16:50.110Z,7.15
2023-03-15T06:19:17.326Z,6.85
2023-03-15T06:21:43.973Z,7.57
2023-03-15T06:24:17.102Z,8.32
2023-03-15T06:26:43.808Z,8.07
2023-03-15T06:29:10.608Z,7.13
2023-03-15T06:31:37.164Z,9.20
2023-03-15T06:34:06.945Z,6.75
2023-03-15T06:36:34.596Z,8.30
2023-03-15T06:39:02.610Z,8.20
2023-03-15T06:41:28.943Z,8.07
2023-03-15T06:44:03.320Z,6.35
2023-03-15T06:46:30.085Z,7.90
2023-03-15T06:48:56.624Z,7.50
2023-03-15T06:51:23.374Z,7.88
2023-03-15T06:53:49.799Z,9.23
2023-03-15T06:56:16.537Z,8.25
2023-03-15T06:58:42.898Z,8.77
2023-03-15T07:01:14.777Z,8.63
2023-03-15T07:03:41.820Z,8.48
2023-03-15T07:06:08.713Z,7.88
2023-03-15T07:08:35.300Z,8.95
2023-03-15T07:11:03.435Z,7.95
2023-03-15T07:13:29.785Z,9.30
2023-03-15T07:15:56.683Z,8.30
2023-03-15T07:18:23.155Z,9.65
2023-03-15T07:20:57.592Z,8.55
2023-03-15T07:23:24.095Z,9.50
2023-03-15T07:25:55.028Z,8.60
2023-03-15T07:28:23.637Z,10.25
2023-03-15T07:31:09.605Z,8.65
2023-03-15T07:33:36.510Z,7.88
2023-03-15T07:36:04.606Z,8.60
2023-03-15T07:38:31.984Z,10.00
2023-03-15T07:41:01.346Z,9.80
2023-03-15T07:43:27.712Z,9.48
2023-03-15T07:46:06.814Z,8.30
2023-03-15T07:48:33.573Z,8.18
2023-03-15T07:50:59.995Z,9.15
2023-03-15T07:53:26.489Z,8.27
2023-03-15T07:55:53.077Z,9.73
2023-03-15T07:58:20.453Z,8.18
2023-03-15T08:00:47.015Z,9.60
2023-03-15T08:03:13.413Z,10.07
2023-03-15T08:05:39.912Z,10.43
2023-03-15T08:08:06.935Z,8.18
2023-03-15T08:10:33.264Z,8.23
2023-03-15T08:12:59.665Z,6.68
2023-03-15T08:15:26.018Z,8.00
2023-03-15T08:17:52.393Z,8.07
2023-03-15T08:20:18.854Z,6.05
2023-03-15T08:22:47.288Z,8.75
2023-03-15T08:25:16.344Z,7.72
2023-03-15T08:27:42.810Z,7.70
2023-03-15T08:30:12.403Z,7.47
2023-03-15T08:32:44.691Z,7.70
2023-03-15T08:35:15.496Z,8.07
2023-03-15T08:37:47.537Z,14.88
2023-03-15T08:40:25.627Z,7.60
2023-03-15T08:42:56.397Z,6.47
2023-03-15T08:45:27.274Z,6.72
2023-03-15T08:48:00.827Z,7.97
2023-03-15T08:50:28.384Z,6.88
2023-03-15T08:52:55.208Z,7.68
2023-03-15T08:55:21.646Z,7.13
2023-03-15T08:57:48.346Z,6.70
2023-03-15T09:00:19.924Z,8.10
2023-03-15T09:02:51.861Z,6.35
2023-03-15T09:05:18.899Z,7.47
2023-03-15T09:07:45.998Z,8.10
2023-03-15T09:10:15.251Z,6.88
2023-03-15T09:12:43.288Z,7.22
2023-03-15T09:15:11.743Z,6.32
2023-03-15T09:17:39.495Z,7.30
2023-03-15T09:20:12.219Z,6.50
2023-03-15T09:22:39.865Z,6.82
2023-03-15T09:25:06.982Z,8.18
2023-03-15T09:27:33.691Z,7.07
2023-03-15T09:30:00.153Z,6.95
2023-03-15T09:32:26.774Z,7.05
2023-03-15T09:34:53.345Z,7.85
2023-03-15T09:37:21.720Z,7.45
2023-03-15T09:39:48.087Z,6.82
2023-03-15T09:42:26.656Z,7.57
2023-03-15T09:45:06.748Z,7.03
2023-03-15T09:47:50.744Z,7.22
2023-03-15T09:50:25.865Z,7.07
2023-03-15T09:53:00.311Z,5.80
2023-03-15T09:55:28.331Z,6.50
2023-03-15T09:58:04.240Z,6.55
2023-03-15T10:00:39.782Z,8.23
2023-03-15T10:03:09.715Z,6.20
2023-03-15T10:05:44.606Z,6.93
2023-03-15T10:08:18.789Z,7.80
2023-03-15T10:11:06.304Z,6.82
2023-03-15T10:13:50.614Z,6.65
2023-03-15T10:16:26.875Z,6.03
2023-03-15T10:19:13.707Z,6.57
2023-03-15T10:21:51.961Z,11.73
2023-03-15T10:24:24.261Z,9.88
2023-03-15T10:26:51.776Z,5.43
2023-03-15T10:29:25.177Z,7.10
2023-03-15T10:31:54.225Z,9.68
2023-03-15T10:34:21.798Z,9.98
2023-03-15T10:36:54.120Z,5.57
2023-03-15T10:39:21.591Z,5.50
2023-03-15T10:41:50.099Z,7.22
2023-03-15T10:44:26.779Z,6.40
2023-03-15T10:47:22.440Z,8.90
2023-03-15T10:49:50.245Z,7.40
2023-03-15T10:52:34.839Z,7.63
2023-03-15T10:55:24.530Z,6.72
2023-03-15T10:57:54.937Z,6.22
2023-03-15T11:00:29.394Z,8.15
2023-03-15T11:03:23.653Z,7.22
2023-03-15T11:05:53.189Z,5.93
2023-03-15T11:08:25.796Z,7.20
2023-03-15T11:10:58.536Z,6.13
2023-03-15T11:13:30.604Z,7.10
2023-03-15T11:16:07.420Z,4.63
2023-03-15T11:18:43.022Z,6.15
2023-03-15T11:21:16.937Z,5.80
2023-03-15T11:23:47.783Z,6.50
2023-03-15T11:26:33.222Z,8.68
2023-03-15T11:29:21.865Z,6.90
2023-03-15T11:31:49.797Z,9.45
2023-03-15T11:34:25.869Z,6.20
2023-03-15T11:37:07.887Z,5.75
2023-03-15T11:39:48.264Z,6.63
2023-03-15T11:42:31.349Z,6.65
2023-03-15T11:45:03.069Z,4.67
2023-03-15T11:47:46.259Z,5.82
2023-03-15T11:50:15.290Z,5.40
2023-03-15T11:52:42.858Z,6.43
2023-03-15T11:55:24.375Z,5.25
2023-03-15T11:57:51.520Z,6.40
2023-03-15T12:00:18.299Z,5.70
2023-03-15T12:02:51.877Z,5.88
2023-03-15T12:05:44.834Z,6.10
2023-03-15T12:08:35.867Z,5.15
2023-03-15T12:11:10.526Z,9.77
2023-03-15T12:13:36.897Z,5.72
2023-03-15T12:16:06.331Z,9.13
2023-03-15T12:18:42.273Z,4.78
2023-03-15T12:21:12.915Z,4.50
2023-03-15T12:23:40.990Z,6.32
2023-03-15T12:26:30.594Z,6.10
2023-03-15T12:29:00.560Z,5.35
2023-03-15T12:31:43.687Z,5.47
2023-03-15T12:34:22.272Z,6.28
2023-03-15T12:36:52.984Z,8.85
2023-03-15T12:39:34.867Z,6.68
2023-03-15T12:42:01.277Z,7.10
2023-03-15T12:44:33.653Z,4.97
2023-03-15T12:47:01.676Z,4.60
2023-03-15T12:49:35.735Z,11.52
2023-03-15T12:52:16.334Z,6.45
2023-03-15T12:54:53.722Z,6.13
2023-03-15T12:57:28.898Z,5.57
2023-03-15T13:00:06.252Z,5.88
2023-03-15T13:02:44.358Z,6.10
2023-03-15T13:05:54.509Z,5.65
2023-03-15T13:08:35.549Z,5.72
2023-03-15T13:11:31.166Z,10.43
2023-03-15T13:14:13.007Z,5.72
2023-03-15T13:16:50.872Z,6.47
2023-03-15T13:19:22.882Z,7.70
2023-03-15T13:22:14.314Z,5.70
2023-03-15T13:24:49.580Z,5.55
2023-03-15T13:27:30.048Z,5.53
2023-03-15T13:29:57.522Z,5.47
2023-03-15T13:32:24.232Z,4.78
2023-03-15T13:34:51.038Z,5.75
2023-03-15T13:37:21.817Z,5.90
2023-03-15T13:39:55.583Z,5.85
2023-03-15T13:42:24.033Z,5.22
2023-03-15T13:45:05.750Z,5.93
2023-03-15T13:47:33.589Z,5.68
2023-03-15T13:50:03.404Z,5.72
2023-03-15T13:52:29.955Z,6.55
2023-03-15T13:54:56.654Z,5.63
2023-03-15T13:57:23.936Z,5.93
2023-03-15T14:00:00.497Z,5.50
2023-03-15T14:02:46.404Z,5.45
2023-03-15T14:05:17.131Z,5.68
2023-03-15T14:07:46.774Z,5.78
2023-03-15T14:10:16.105Z,5.47
2023-03-15T14:12:43.823Z,5.95
2023-03-15T14:15:33.501Z,5.38
2023-03-15T14:18:20.447Z,4.88
2023-03-15T14:21:02.556Z,6.38
2023-03-15T14:23:29.945Z,6.18
2023-03-15T14:26:05.581Z,5.60
2023-03-15T14:28:33.477Z,5.88
2023-03-15T14:31:00.629Z,5.53
2023-03-15T14:33:36.167Z,5.32
2023-03-15T14:36:07.211Z,6.07
2023-03-15T14:38:37.377Z,7.82
2023-03-15T14:41:17.461Z,5.82
2023-03-15T14:43:44.088Z,6.10
2023-03-15T14:46:10.743Z,6.03
2023-03-15T14:48:37.158Z,4.68
2023-03-15T14:51:03.758Z,5.35
2023-03-15T14:53:35.590Z,5.30
2023-03-15T14:56:02.604Z,4.90
2023-03-15T14:58:28.953Z,5.65
2023-03-15T15:00:57.702Z,8.30
2023-03-15T15:03:48.084Z,6.65
2023-03-15T15:06:16.000Z,7.90
2023-03-15T15:08:47.507Z,8.50
2023-03-15T15:11:15.114Z,5.85
2023-03-15T15:13:41.728Z,6.15
2023-03-15T15:16:08.932Z,5.65
2023-03-15T15:18:37.006Z,5.03
2023-03-15T15:21:27.309Z,6.18
2023-03-15T15:23:58.929Z,5.15
2023-03-15T15:26:28.480Z,5.27
2023-03-15T15:28:56.283Z,5.90
2023-03-15T15:31:24.503Z,5.43
2023-03-15T15:33:52.236Z,4.95
2023-03-15T15:36:29.890Z,6.13
2023-03-15T15:38:57.417Z,5.57
2023-03-15T15:41:26.849Z,5.82
2023-03-15T15:43:53.405Z,7.75
2023-03-15T15:46:19.762Z,5.60
2023-03-15T15:48:46.249Z,5.10
2023-03-15T15:51:19.364Z,6.97
2023-03-15T15:53:46.130Z,5.50
2023-03-15T15:56:13.113Z,5.35
2023-03-15T15:58:41.796Z,5.82
2023-03-15T16:01:12.575Z,6.25
2023-03-15T16:03:39.241Z,6.55
2023-03-15T16:06:06.561Z,5.30
2023-03-15T16:08:38.523Z,5.05
2023-03-15T16:11:05.101Z,9.43
2023-03-15T16:13:31.443Z,5.93
2023-03-15T16:15:58.263Z,5.60
2023-03-15T16:18:25.298Z,5.07
2023-03-15T16:20:51.717Z,4.85
2023-03-15T16:23:22.545Z,5.45
2023-03-15T16:25:52.271Z,6.18
2023-03-15T16:28:18.751Z,5.43
2023-03-15T16:30:46.856Z,5.70
2023-03-15T16:33:18.975Z,5.38
2023-03-15T16:35:46.026Z,6.20
2023-03-15T16:38:16.004Z,5.63
2023-03-15T16:40:45.147Z,6.45
2023-03-15T16:43:12.372Z,6.20
2023-03-15T16:45:38.828Z,5.88
2023-03-15T16:48:05.329Z,5.00
2023-03-15T16:50:32.448Z,6.35
2023-03-15T16:53:03.549Z,5.28
2023-03-15T16:55:32.796Z,5.65
2023-03-15T16:58:11.212Z,5.15
2023-03-15T17:00:37.667Z,6.15
2023-03-15T17:03:04.414Z,5.40
2023-03-15T17:05:32.698Z,6.45
2023-03-15T17:08:00.640Z,6.55
2023-03-15T17:10:30.934Z,5.53
2023-03-15T17:13:00.260Z,5.88
2023-03-15T17:15:28.221Z,5.65
2023-03-15T17:17:58.585Z,5.20
2023-03-15T17:20:27.222Z,13.10
2023-03-15T17:22:57.140Z,7.00
2023-03-15T17:25:23.752Z,6.00
2023-03-15T17:27:51.156Z,6.20
2023-03-15T17:30:21.136Z,6.72
2023-03-15T17:32:47.870Z,6.43
2023-03-15T17:35:15.777Z,6.10
2023-03-15T17:37:44.544Z,6.78
2023-03-15T17:40:19.767Z,11.00
2023-03-15T17:42:46.197Z,8.20
2023-03-15T17:45:18.334Z,9.10
2023-03-15T17:47:44.825Z,6.93
2023-03-15T17:50:11.649Z,7.78
2023-03-15T17:52:39.308Z,7.60
2023-03-15T17:55:06.082Z,6.43
2023-03-15T17:57:32.890Z,6.13
2023-03-15T17:59:59.275Z,5.95
2023-03-15T18:02:26.478Z,6.13
2023-03-15T18:04:52.793Z,7.18
2023-03-15T18:07:19.164Z,7.53
2023-03-15T18:09:45.499Z,6.18
2023-03-15T18:12:14.323Z,8.73
2023-03-15T18:14:41.615Z,7.20
2023-03-15T18:17:07.968Z,8.98
2023-03-15T18:19:34.290Z,7.82
2023-03-15T18:22:00.634Z,11.18
2023-03-15T18:24:27.070Z,9.90
2023-03-15T18:26:53.420Z,8.82
2023-03-15T18:29:19.786Z,9.85
2023-03-15T18:31:46.190Z,10.63
2023-03-15T18:34:15.563Z,8.50
2023-03-15T18:36:41.956Z,8.07
2023-03-15T18:39:08.759Z,9.73
2023-03-15T18:41:35.239Z,10.52
2023-03-15T18:44:01.636Z,9.63
2023-03-15T18:46:28.115Z,9.73
2023-03-15T18:48:54.525Z,9.30
2023-03-15T18:51:22.851Z,9.18
2023-03-15T18:53:49.508Z,8.40
2023-03-15T18:56:34.462Z,8.35
2023-03-15T18:59:01.835Z,7.45
2023-03-15T19:01:28.865Z,7.80
2023-03-15T19:03:55.462Z,7.38
2023-03-15T19:06:26.015Z,8.02
2023-03-15T19:08:54.110Z,8.27
2023-03-15T19:11:21.501Z,8.68
2023-03-15T19:13:50.872Z,9.05
2023-03-15T19:16:21.609Z,8.02
2023-03-15T19:18:49.491Z,9.35
2023-03-15T19:21:16.258Z,8.25
2023-03-15T19:23:42.587Z,7.85
2023-03-15T19:26:09.266Z,7.38
2023-03-15T19:28:36.664Z,7.68
2023-03-15T19:31:03.471Z,7.10
2023-03-15T19:33:29.897Z,7.28
2023-03-15T19:35:56.324Z,7.88
2023-03-15T19:38:23.371Z,6.93
2023-03-15T19:40:54.918Z,7.00
2023-03-15T19:43:23.268Z,8.20
2023-03-15T19:45:49.777Z,9.40
2023-03-15T19:48:16.642Z,11.45
2023-03-15T19:50:44.148Z,10.00
2023-03-15T19:53:11.952Z,10.48
2023-03-15T19:55:38.385Z,8.57
2023-03-15T19:58:04.747Z,7.32
2023-03-15T20:00:31.465Z,7.13
2023-03-15T20:02:58.079Z,7.88
2023-03-15T20:05:25.453Z,8.57
2023-03-15T20:07:52.151Z,10.10
2023-03-15T20:10:19.522Z,9.88
2023-03-15T20:12:47.058Z,11.00
2023-03-15T20:15:16.795Z,10.65
2023-03-15T20:17:44.145Z,11.68
2023-03-15T20:20:13.102Z,14.90
2023-03-15T20:22:41.748Z,16.13
2023-03-15T20:25:09.891Z,19.25
2023-03-15T20:27:37.165Z,29.10
2023-03-15T20:30:04.803Z,29.35
2023-03-15T20:32:31.256Z,19.63
2023-03-15T20:34:57.608Z,12.35
2023-03-15T20:37:29.369Z,11.98
2023-03-15T20:39:56.000Z,8.15
2023-03-15T20:42:23.464Z,10.23
2023-03-15T20:44:50.328Z,8.15
2023-03-15T20:47:16.747Z,8.38
2023-03-15T20:49:44.483Z,9.32
2023-03-15T20:52:11.434Z,11.90
2023-03-15T20:54:37.795Z,9.38
2023-03-15T20:57:04.363Z,12.35
2023-03-15T20:59:31.927Z,12.45
2023-03-15T21:01:58.269Z,10.60
2023-03-15T21:04:25.981Z,8.13
2023-03-15T21:06:52.612Z,7.60
2023-03-15T21:09:19.048Z,8.55
2023-03-15T21:11:45.449Z,12.40
2023-03-15T21:14:11.826Z,11.30
2023-03-15T21:16:38.241Z,10.32
2023-03-15T21:19:04.664Z,9.38
2023-03-15T21:21:31.126Z,9.93
2023-03-15T21:23:57.601Z,9.48
2023-03-15T21:26:23.947Z,10.55
2023-03-15T21:28:51.005Z,9.55
2023-03-15T21:31:17.468Z,10.43
2023-03-15T21:33:43.894Z,10.70
2023-03-15T21:36:10.455Z,8.90
2023-03-15T21:38:37.240Z,9.93
2023-03-15T21:41:08.898Z,8.85
2023-03-15T21:43:36.091Z,10.60
2023-03-15T21:46:07.890Z,10.18
2023-03-15T21:48:34.901Z,10.43
2023-03-15T21:51:01.949Z,13.88
2023-03-15T21:53:29.271Z,13.43
2023-03-15T21:55:59.116Z,14.30
2023-03-15T21:58:26.655Z,12.00
2023-03-15T22:00:58.307Z,12.32
2023-03-15T22:03:25.248Z,11.90
2023-03-15T22:05:52.482Z,13.52
2023-03-15T22:08:19.294Z,12.18
2023-03-15T22:10:45.657Z,12.30
2023-03-15T22:13:12.018Z,10.88
2023-03-15T22:15:38.453Z,10.95
2023-03-15T22:18:05.053Z,10.48
2023-03-15T22:20:31.404Z,10.77
2023-03-15T22:22:57.767Z,9.80
2023-03-15T22:25:24.171Z,10.32
2023-03-15T22:27:50.837Z,10.32
2023-03-15T22:30:18.649Z,9.98
2023-03-15T22:32:45.128Z,11.52
2023-03-15T22:35:13.734Z,10.90
2023-03-15T22:37:40.539Z,11.25
2023-03-15T22:40:07.812Z,12.13
2023-03-15T22:42:34.141Z,11.38
2023-03-15T22:45:00.498Z,10.30
2023-03-15T22:47:27.104Z,8.85
2023-03-15T22:49:54.589Z,10.07
2023-03-15T22:52:20.969Z,10.02
2023-03-15T22:54:47.333Z,8.45
2023-03-15T22:57:13.656Z,10.38
2023-03-15T22:59:39.977Z,9.63
2023-03-15T23:02:07.015Z,12.07
2023-03-15T23:04:33.909Z,10.05
2023-03-15T23:07:00.322Z,9.18
2023-03-15T23:09:26.649Z,7.55
2023-03-15T23:11:53.011Z,8.27
2023-03-15T23:14:19.371Z,8.23
2023-03-15T23:16:45.816Z,9.65
2023-03-15T23:19:13.297Z,10.45
2023-03-15T23:21:40.010Z,11.05
2023-03-15T23:24:07.661Z,8.75
2023-03-15T23:26:39.870Z,11.05
2023-03-15T23:29:10.592Z,9.38
2023-03-15T23:31:38.336Z,11.20
2023-03-15T23:34:05.008Z,9.02
2023-03-15T23:36:31.441Z,9.05
2023-03-15T23:38:57.764Z,7.68
2023-03-15T23:41:24.243Z,9.68
2023-03-15T23:43:50.608Z,9.27
2023-03-15T23:46:17.061Z,9.68
2023-03-15T23:48:43.438Z,8.55
2023-03-15T23:51:09.949Z,7.97
2023-03-15T23:53:36.325Z,7.85
2023-03-15T23:56:02.678Z,8.68
2023-03-15T23:58:29.077Z,7.78
